Time;durP1;ratioP1;P1;durP2;ratioP2;P2;SDS_P1;SDS_P2;PMS_P1;PMS_P2;Temp;Humidity;BMP_temperature;BMP_pressure;BME280_temperature;BME280_humidity;BME280_pressure;Samples;Min_cycle;Max_cycle;Signal;HPM_P1;HPM_P2
2022/08/25 00:01:13;;;;;;;;;;;22.60;90.00;;;;;;5074180;28;20003;-65
2022/08/25 00:03:39;;;;;;;;;;;22.70;90.30;;;;;;5074042;28;19909;-65
2022/08/25 00:06:05;;;;;;;;;;;22.60;90.10;;;;;;5073934;28;19916;-65
2022/08/25 00:08:33;;;;;;;;;;;22.60;90.20;;;;;;5073971;28;19908;-64
2022/08/25 00:11:00;;;;;;;;;;;22.60;90.20;;;;;;5073930;28;19912;-65
2022/08/25 00:13:27;;;;;;;;;;;22.50;90.30;;;;;;5073849;28;20282;-65
2022/08/25 00:15:53;;;;;;;;;;;22.50;90.70;;;;;;5073734;28;19928;-64
2022/08/25 00:18:19;;;;;;;;;;;22.50;90.80;;;;;;5074015;28;20385;-65
2022/08/25 00:20:46;;;;;;;;;;;22.40;91.10;;;;;;5073774;28;20371;-64
2022/08/25 00:23:11;;;;;;;;;;;22.40;91.10;;;;;;5056155;28;19908;-65
2022/08/25 00:25:37;;;;;;;;;;;22.30;91.40;;;;;;5073783;28;20331;-65
2022/08/25 00:28:03;;;;;;;;;;;22.30;91.60;;;;;;5073715;28;20346;-66
2022/08/25 00:30:29;;;;;;;;;;;22.30;91.70;;;;;;5055680;28;19912;-65
2022/08/25 00:32:54;;;;;;;;;;;22.20;92.00;;;;;;5073603;28;19953;-63
2022/08/25 00:35:20;;;;;;;;;;;22.10;92.30;;;;;;5073338;28;20374;-64
2022/08/25 00:37:45;;;;;;;;;;;22.00;92.60;;;;;;5073834;28;19943;-64
2022/08/25 00:40:11;;;;;;;;;;;22.00;92.90;;;;;;5055652;28;20371;-65
2022/08/25 00:42:37;;;;;;;;;;;21.90;93.20;;;;;;5073568;28;20286;-65
2022/08/25 00:45:04;;;;;;;;;;;21.90;93.20;;;;;;5073707;28;19915;-64
2022/08/25 00:47:30;;;;;;;;;;;21.90;93.50;;;;;;5073491;28;20392;-63
2022/08/25 00:49:58;;;;;;;;;;;21.80;94.00;;;;;;5055523;28;19912;-63
2022/08/25 00:52:26;;;;;;;;;;;21.70;94.20;;;;;;5073455;28;19908;-64
2022/08/25 00:54:55;;;;;;;;;;;21.60;94.60;;;;;;5055773;28;19912;-64
2022/08/25 00:57:23;;;;;;;;;;;21.50;95.10;;;;;;5076607;28;19908;-65
2022/08/25 00:59:49;;;;;;;;;;;21.40;95.60;;;;;;5077442;28;19920;-65
2022/08/25 01:02:15;;;;;;;;;;;21.40;95.90;;;;;;5077328;28;20291;-62
2022/08/25 01:04:41;;;;;;;;;;;21.40;96.10;;;;;;5077187;28;19915;-63
2022/08/25 01:07:07;;;;;;;;;;;21.30;96.30;;;;;;5077456;28;19909;-62
2022/08/25 01:09:33;;;;;;;;;;;21.20;96.90;;;;;;5077490;28;19960;-64
2022/08/25 01:12:00;;;;;;;;;;;21.20;97.50;;;;;;5077335;28;20375;-63
2022/08/25 01:14:26;;;;;;;;;;;21.00;97.80;;;;;;5077226;28;19919;-63
2022/08/25 01:16:52;;;;;;;;;;;20.90;98.70;;;;;;5077012;28;19916;-65
2022/08/25 01:19:18;;;;;;;;;;;20.90;99.40;;;;;;5077328;28;19908;-64
2022/08/25 01:21:45;;;;;;;;;;;20.70;99.90;;;;;;5042327;28;20016;-65
2022/08/25 01:24:16;;;;;;;;;;;20.60;99.90;;;;;;5077111;28;20012;-64
2022/08/25 01:26:41;;;;;;;;;;;20.60;99.90;;;;;;5077062;28;19915;-64
2022/08/25 01:29:39;;;;;;;;;;;20.60;99.90;;;;;;5076751;28;20441;-65
2022/08/25 01:31:56;;;;;;;;;;;20.60;99.90;;;;;;5076544;28;20000;-64
2022/08/25 01:34:22;;;;;;;;;;;20.60;99.90;;;;;;5076510;28;19928;-65
2022/08/25 01:36:48;;;;;;;;;;;20.60;99.90;;;;;;5076617;28;19909;-64
2022/08/25 01:39:14;;;;;;;;;;;20.60;99.90;;;;;;5076832;28;19915;-64
2022/08/25 01:42:00;;;;;;;;;;;20.60;99.90;;;;;;5076492;28;20392;-65
2022/08/25 01:44:26;;;;;;;;;;;20.50;99.90;;;;;;5076440;28;19915;-65
2022/08/25 01:46:52;;;;;;;;;;;20.50;99.90;;;;;;5076707;28;20301;-64
2022/08/25 01:49:17;;;;;;;;;;;20.40;99.90;;;;;;5076697;28;20263;-64
2022/08/25 01:51:46;;;;;;;;;;;20.40;99.90;;;;;;5076598;28;19959;-64
2022/08/25 01:54:11;;;;;;;;;;;20.30;99.90;;;;;;5076455;28;19956;-65
2022/08/25 01:56:37;;;;;;;;;;;20.30;99.90;;;;;;5076517;28;19952;-65
2022/08/25 01:59:03;;;;;;;;;;;20.20;99.90;;;;;;5076484;28;19908;-65
2022/08/25 02:01:28;;;;;;;;;;;20.20;99.90;;;;;;5058219;28;19912;-65
2022/08/25 02:03:55;;;;;;;;;;;20.20;99.90;;;;;;5076394;28;19958;-64
2022/08/25 02:06:22;;;;;;;;;;;20.20;99.90;;;;;;5076235;28;20428;-66
2022/08/25 02:08:50;;;;;;;;;;;20.10;99.90;;;;;;5076024;28;20416;-64
2022/08/25 02:11:16;;;;;;;;;;;20.10;99.90;;;;;;5076285;28;20386;-64
2022/08/25 02:13:41;;;;;;;;;;;20.10;99.90;;;;;;5075936;28;19909;-64
2022/08/25 02:16:09;;;;;;;;;;;20.00;99.90;;;;;;5076088;28;20003;-64
2022/08/25 02:18:35;;;;;;;;;;;20.00;99.90;;;;;;5075934;28;19909;-64
2022/08/25 02:21:00;;;;;;;;;;;19.80;99.90;;;;;;5076087;28;19961;-64
2022/08/25 02:23:27;;;;;;;;;;;19.80;99.90;;;;;;5075796;28;19916;-65
2022/08/25 02:25:52;;;;;;;;;;;19.70;99.90;;;;;;5076002;28;19909;-65
2022/08/25 02:28:17;;;;;;;;;;;19.70;99.90;;;;;;5075650;28;20386;-64
2022/08/25 02:30:43;;;;;;;;;;;19.60;99.90;;;;;;5075897;28;19940;-65
2022/08/25 02:33:09;;;;;;;;;;;19.60;99.90;;;;;;5075845;28;19912;-64
2022/08/25 02:35:35;;;;;;;;;;;19.60;99.90;;;;;;5075415;28;20511;-64
2022/08/25 02:38:01;;;;;;;;;;;19.60;99.90;;;;;;5075872;28;19908;-65
2022/08/25 02:40:26;;;;;;;;;;;19.60;99.90;;;;;;5075841;28;19908;-65
2022/08/25 02:42:52;;;;;;;;;;;19.50;99.90;;;;;;5075410;28;19999;-65
2022/08/25 02:45:18;;;;;;;;;;;19.50;99.90;;;;;;5075444;28;19963;-64
2022/08/25 02:47:44;;;;;;;;;;;19.50;99.90;;;;;;5075375;28;20325;-65
2022/08/25 02:50:10;;;;;;;;;;;19.40;99.90;;;;;;5075567;28;19909;-64
2022/08/25 02:52:36;;;;;;;;;;;19.30;99.90;;;;;;5075503;28;19916;-64
2022/08/25 02:55:03;;;;;;;;;;;19.30;99.90;;;;;;5075046;28;19912;-64
2022/08/25 02:57:29;;;;;;;;;;;19.20;99.90;;;;;;5075353;28;20423;-64
2022/08/25 02:59:55;;;;;;;;;;;19.10;99.90;;;;;;5075077;28;19908;-65
2022/08/25 03:02:20;;;;;;;;;;;19.10;99.90;;;;;;5075253;28;19916;-64
2022/08/25 03:04:46;;;;;;;;;;;19.00;99.90;;;;;;5074968;28;19915;-64
2022/08/25 03:07:12;;;;;;;;;;;19.00;99.90;;;;;;5075104;28;19908;-64
2022/08/25 03:09:38;;;;;;;;;;;19.00;99.90;;;;;;5075115;28;19912;-65
2022/08/25 03:12:03;;;;;;;;;;;18.90;99.90;;;;;;5075063;28;19909;-64
2022/08/25 03:14:29;;;;;;;;;;;18.90;99.90;;;;;;5074984;28;19970;-64
2022/08/25 03:16:55;;;;;;;;;;;18.90;99.90;;;;;;5074982;28;20428;-64
2022/08/25 03:19:20;;;;;;;;;;;18.80;99.90;;;;;;5073838;28;19908;-64
2022/08/25 03:21:46;;;;;;;;;;;18.80;99.90;;;;;;5074912;28;19912;-64
2022/08/25 03:24:11;;;;;;;;;;;18.80;99.90;;;;;;5074782;28;19915;-64
2022/08/25 03:26:53;;;;;;;;;;;18.70;99.90;;;;;;5074775;28;20332;-64
2022/08/25 03:29:20;;;;;;;;;;;18.70;99.90;;;;;;5074727;28;19915;-64
2022/08/25 03:31:46;;;;;;;;;;;18.60;99.90;;;;;;5056558;28;19962;-64
2022/08/25 03:34:12;;;;;;;;;;;18.60;99.90;;;;;;5074286;28;19917;-65
2022/08/25 03:36:38;;;;;;;;;;;18.60;99.90;;;;;;5074602;28;20024;-64
2022/08/25 03:39:03;;;;;;;;;;;18.60;99.90;;;;;;5074306;28;19958;-64
2022/08/25 03:41:31;;;;;;;;;;;18.60;99.90;;;;;;5074499;28;20436;-64
2022/08/25 03:43:58;;;;;;;;;;;18.60;99.90;;;;;;5074451;28;19908;-64
2022/08/25 03:46:25;;;;;;;;;;;18.60;99.90;;;;;;5074379;28;20286;-64
2022/08/25 03:48:51;;;;;;;;;;;18.50;99.90;;;;;;5074380;28;19995;-64
2022/08/25 03:51:20;;;;;;;;;;;18.50;99.90;;;;;;5074325;28;19922;-65
2022/08/25 03:53:45;;;;;;;;;;;18.50;99.90;;;;;;5073994;28;20008;-64
2022/08/25 03:56:11;;;;;;;;;;;18.40;99.90;;;;;;5074155;28;20011;-64
2022/08/25 03:58:36;;;;;;;;;;;18.40;99.90;;;;;;5056227;28;20283;-64
2022/08/25 04:01:02;;;;;;;;;;;18.40;99.90;;;;;;5074180;28;19910;-64
2022/08/25 04:03:27;;;;;;;;;;;18.40;99.90;;;;;;5073874;28;19914;-64
2022/08/25 04:05:52;;;;;;;;;;;18.30;99.90;;;;;;5074091;28;20003;-64
2022/08/25 04:08:18;;;;;;;;;;;18.30;99.90;;;;;;5074042;28;20306;-64
2022/08/25 04:10:43;;;;;;;;;;;18.30;99.90;;;;;;5073685;28;19909;-64
2022/08/25 04:13:11;;;;;;;;;;;18.20;99.90;;;;;;5073992;28;19916;-64
2022/08/25 04:15:40;;;;;;;;;;;18.20;99.90;;;;;;5073744;28;19920;-64
2022/08/25 04:18:05;;;;;;;;;;;18.10;99.90;;;;;;5073627;28;19908;-64
2022/08/25 04:20:31;;;;;;;;;;;18.10;99.90;;;;;;5055680;28;19916;-64
2022/08/25 04:23:00;;;;;;;;;;;18.10;99.90;;;;;;5073587;28;19915;-64
2022/08/25 04:25:26;;;;;;;;;;;18.00;99.90;;;;;;5039452;28;19909;-64
2022/08/25 04:27:52;;;;;;;;;;;18.00;99.90;;;;;;5073498;28;20007;-64
2022/08/25 04:30:17;;;;;;;;;;;17.90;99.90;;;;;;5073408;28;19913;-64
2022/08/25 04:32:43;;;;;;;;;;;17.90;99.90;;;;;;5073802;28;19954;-64
2022/08/25 04:35:09;;;;;;;;;;;17.90;99.90;;;;;;5073234;28;20411;-65
2022/08/25 04:37:35;;;;;;;;;;;17.90;99.90;;;;;;5073777;28;19954;-65
2022/08/25 04:40:00;;;;;;;;;;;17.90;99.90;;;;;;5073444;28;19908;-64
2022/08/25 04:42:26;;;;;;;;;;;17.90;99.90;;;;;;5073728;28;19909;-65
2022/08/25 04:44:53;;;;;;;;;;;18.00;99.90;;;;;;5073649;28;19908;-64
2022/08/25 04:47:18;;;;;;;;;;;18.00;99.90;;;;;;5073651;28;19977;-64
2022/08/25 04:49:44;;;;;;;;;;;18.00;99.90;;;;;;5073359;28;19916;-65
2022/08/25 04:52:09;;;;;;;;;;;18.00;99.90;;;;;;5073361;28;19959;-65
2022/08/25 04:54:35;;;;;;;;;;;18.10;99.90;;;;;;5055395;28;19957;-65
2022/08/25 04:57:00;;;;;;;;;;;18.10;99.90;;;;;;5073582;28;19942;-64
2022/08/25 04:59:26;;;;;;;;;;;18.10;99.90;;;;;;5073537;28;20332;-65
2022/08/25 05:01:52;;;;;;;;;;;18.20;99.90;;;;;;5073544;28;20391;-64
2022/08/25 05:04:19;;;;;;;;;;;18.30;99.90;;;;;;5055352;28;19909;-64
2022/08/25 05:06:45;;;;;;;;;;;18.40;99.90;;;;;;5073448;28;20378;-64
2022/08/25 05:09:11;;;;;;;;;;;18.40;99.90;;;;;;5073179;28;19924;-64
2022/08/25 05:11:37;;;;;;;;;;;18.50;99.90;;;;;;5073474;28;19908;-64
2022/08/25 05:14:03;;;;;;;;;;;18.70;99.90;;;;;;5073389;28;19908;-64
2022/08/25 05:16:29;;;;;;;;;;;18.90;99.90;;;;;;5055469;28;20401;-64
2022/08/25 05:18:55;;;;;;;;;;;19.10;99.90;;;;;;5073381;28;20368;-64
2022/08/25 05:21:22;;;;;;;;;;;19.30;99.90;;;;;;5073090;28;19954;-64
2022/08/25 05:23:48;;;;;;;;;;;19.30;99.90;;;;;;5073240;28;19909;-64
2022/08/25 05:26:15;;;;;;;;;;;19.50;99.90;;;;;;5073257;28;19930;-65
2022/08/25 05:28:41;;;;;;;;;;;19.60;99.90;;;;;;5072993;28;19908;-65
2022/08/25 05:31:07;;;;;;;;;;;19.60;99.90;;;;;;5073264;28;19909;-64
2022/08/25 05:33:34;;;;;;;;;;;19.70;99.90;;;;;;5073241;28;19909;-64
2022/08/25 05:35:59;;;;;;;;;;;19.80;99.90;;;;;;5072740;28;20015;-65
2022/08/25 05:38:25;;;;;;;;;;;19.80;99.90;;;;;;5072929;28;20001;-65
2022/08/25 05:40:55;;;;;;;;;;;19.90;99.90;;;;;;5072916;28;19915;-64
2022/08/25 05:43:20;;;;;;;;;;;20.10;99.90;;;;;;5075494;28;20397;-65
2022/08/25 05:45:46;;;;;;;;;;;20.30;99.90;;;;;;5076544;28;19908;-64
2022/08/25 05:48:11;;;;;;;;;;;20.70;99.90;;;;;;5076675;28;19909;-65
2022/08/25 05:50:37;;;;;;;;;;;21.40;99.90;;;;;;5076373;28;19978;-64
2022/08/25 05:53:02;;;;;;;;;;;22.50;99.90;;;;;;5076613;28;19909;-65
2022/08/25 05:55:28;;;;;;;;;;;24.10;99.90;;;;;;5076214;28;19913;-64
2022/08/25 05:57:53;;;;;;;;;;;25.60;99.90;;;;;;5076458;28;19931;-64
2022/08/25 06:00:19;;;;;;;;;;;26.80;99.90;;;;;;5076182;28;19917;-62
2022/08/25 06:02:47;;;;;;;;;;;28.20;98.80;;;;;;5076229;28;19912;-62
2022/08/25 06:05:15;;;;;;;;;;;28.50;96.50;;;;;;5076325;28;20366;-64
2022/08/25 06:07:40;;;;;;;;;;;29.10;95.00;;;;;;5076250;28;20000;-64
2022/08/25 06:10:09;;;;;;;;;;;29.40;93.70;;;;;;5076011;28;19966;-64
2022/08/25 06:12:35;;;;;;;;;;;29.70;92.90;;;;;;5075960;28;20264;-64
2022/08/25 06:15:01;;;;;;;;;;;30.40;91.50;;;;;;5076043;28;20120;-64
2022/08/25 06:17:26;;;;;;;;;;;30.20;90.70;;;;;;5057872;28;19916;-64
2022/08/25 06:19:53;;;;;;;;;;;30.10;90.40;;;;;;5075802;28;20283;-64
2022/08/25 06:22:20;;;;;;;;;;;30.30;90.50;;;;;;5076010;28;19935;-64
2022/08/25 06:24:46;;;;;;;;;;;31.00;89.00;;;;;;5075979;28;19908;-64
2022/08/25 06:27:11;;;;;;;;;;;31.70;87.10;;;;;;5075981;28;19961;-64
2022/08/25 06:29:37;;;;;;;;;;;31.40;85.30;;;;;;5075587;28;19909;-62
2022/08/25 06:32:02;;;;;;;;;;;31.90;84.70;;;;;;5075864;28;20325;-64
2022/08/25 06:34:28;;;;;;;;;;;31.80;84.40;;;;;;5075492;28;19969;-64
2022/08/25 06:36:53;;;;;;;;;;;32.20;83.40;;;;;;5075822;28;20331;-64
2022/08/25 06:39:19;;;;;;;;;;;32.40;81.30;;;;;;5075743;28;19919;-64
2022/08/25 06:41:44;;;;;;;;;;;32.30;82.40;;;;;;5075673;28;19908;-64
2022/08/25 06:44:10;;;;;;;;;;;33.20;78.40;;;;;;5075660;28;19956;-64
2022/08/25 06:46:36;;;;;;;;;;;33.10;78.70;;;;;;5075451;28;19915;-63
2022/08/25 06:49:01;;;;;;;;;;;33.60;78.30;;;;;;5075542;28;19908;-64
2022/08/25 06:51:27;;;;;;;;;;;33.50;76.40;;;;;;5075502;28;19915;-64
2022/08/25 06:53:53;;;;;;;;;;;33.10;76.60;;;;;;5074816;28;19920;-65
2022/08/25 06:56:19;;;;;;;;;;;33.40;76.90;;;;;;5072418;28;20358;-65
2022/08/25 06:58:45;;;;;;;;;;;33.00;76.20;;;;;;5072593;28;20432;-64
2022/08/25 07:01:12;;;;;;;;;;;33.30;76.70;;;;;;5075228;28;19912;-64
2022/08/25 07:03:38;;;;;;;;;;;33.70;75.30;;;;;;5074062;28;19913;-65
2022/08/25 07:06:04;;;;;;;;;;;34.10;74.10;;;;;;5074102;28;19999;-65
2022/08/25 07:08:30;;;;;;;;;;;34.40;73.30;;;;;;5074101;28;19916;-66
2022/08/25 07:10:55;;;;;;;;;;;34.10;73.50;;;;;;5074548;28;19956;-66
2022/08/25 07:13:21;;;;;;;;;;;33.70;74.20;;;;;;5074018;28;20370;-65
2022/08/25 07:15:51;;;;;;;;;;;34.20;74.10;;;;;;5074430;28;20388;-67
2022/08/25 07:18:17;;;;;;;;;;;33.80;73.50;;;;;;5074192;28;20471;-66
2022/08/25 07:20:42;;;;;;;;;;;34.30;74.00;;;;;;5074264;28;19955;-65
2022/08/25 07:23:08;;;;;;;;;;;34.50;71.80;;;;;;5072842;28;19920;-66
2022/08/25 07:25:34;;;;;;;;;;;35.20;71.00;;;;;;5073554;28;20121;-64
2022/08/25 07:28:00;;;;;;;;;;;34.50;71.30;;;;;;5054963;28;19917;-65
2022/08/25 07:30:26;;;;;;;;;;;34.30;71.80;;;;;;5055902;28;20405;-63
2022/08/25 07:32:51;;;;;;;;;;;33.90;72.50;;;;;;5073783;28;20379;-65
2022/08/25 07:35:19;;;;;;;;;;;34.40;72.10;;;;;;5051837;28;19927;-64
2022/08/25 07:37:46;;;;;;;;;;;34.00;71.90;;;;;;5053645;28;20282;-66
2022/08/25 07:40:13;;;;;;;;;;;34.50;71.80;;;;;;5053050;28;19917;-64
2022/08/25 07:42:40;;;;;;;;;;;34.70;71.50;;;;;;5053559;28;19917;-64
2022/08/25 07:45:06;;;;;;;;;;;35.70;69.90;;;;;;5053752;28;19913;-65
2022/08/25 07:47:32;;;;;;;;;;;35.00;69.20;;;;;;5053918;28;20007;-65
2022/08/25 07:49:57;;;;;;;;;;;34.50;71.00;;;;;;5053736;28;20347;-63
2022/08/25 07:52:23;;;;;;;;;;;34.90;70.90;;;;;;5053707;28;19919;-63
2022/08/25 07:54:48;;;;;;;;;;;35.00;70.40;;;;;;5053939;28;20381;-64
2022/08/25 07:57:14;;;;;;;;;;;34.90;69.40;;;;;;5053574;28;19919;-64
2022/08/25 07:59:40;;;;;;;;;;;35.20;69.20;;;;;;5053299;28;20405;-66
2022/08/25 08:02:12;;;;;;;;;;;35.00;69.60;;;;;;5054013;28;20407;-65
2022/08/25 08:04:38;;;;;;;;;;;35.80;69.10;;;;;;5049716;28;19944;-63
2022/08/25 08:07:04;;;;;;;;;;;36.10;68.00;;;;;;5053499;28;20300;-63
2022/08/25 08:09:30;;;;;;;;;;;36.10;67.60;;;;;;5053727;28;19917;-64
2022/08/25 08:11:56;;;;;;;;;;;36.40;65.70;;;;;;5053017;28;19917;-64
2022/08/25 08:14:22;;;;;;;;;;;36.10;66.70;;;;;;5054218;28;19913;-64
2022/08/25 08:16:48;;;;;;;;;;;35.70;66.60;;;;;;5053308;28;19917;-64
2022/08/25 08:19:14;;;;;;;;;;;34.70;69.60;;;;;;5052990;28;20298;-63
2022/08/25 08:21:40;;;;;;;;;;;33.80;71.50;;;;;;5053068;28;19919;-64
2022/08/25 08:24:06;;;;;;;;;;;34.30;71.60;;;;;;5053350;28;20007;-64
2022/08/25 08:26:31;;;;;;;;;;;34.20;71.90;;;;;;5052726;28;19963;-65
2022/08/25 08:28:57;;;;;;;;;;;33.90;72.60;;;;;;5052394;28;19912;-65
2022/08/25 08:31:25;;;;;;;;;;;35.10;71.60;;;;;;5053302;28;19919;-66
2022/08/25 08:33:51;;;;;;;;;;;35.10;70.50;;;;;;5053714;28;19939;-66
2022/08/25 08:36:17;;;;;;;;;;;34.80;70.10;;;;;;5035224;28;20364;-66
2022/08/25 08:38:43;;;;;;;;;;;34.20;71.30;;;;;;5056228;28;19927;-66
2022/08/25 08:44:29;;;;;;;;;;;35.20;70.00;;;;;;5072875;28;20412;-66
2022/08/25 08:47:01;;;;;;;;;;;34.90;70.30;;;;;;5073322;28;20432;-66
2022/08/25 08:49:32;;;;;;;;;;;35.20;68.50;;;;;;5055059;28;19957;-66
2022/08/25 08:52:00;;;;;;;;;;;34.60;69.80;;;;;;5072529;28;20430;-66
2022/08/25 08:54:28;;;;;;;;;;;35.30;70.20;;;;;;5054982;28;19935;-67
2022/08/25 08:56:57;;;;;;;;;;;35.50;68.50;;;;;;5072708;28;19955;-67
2022/08/25 08:59:25;;;;;;;;;;;34.90;70.30;;;;;;5072650;28;19943;-66
2022/08/25 09:01:56;;;;;;;;;;;35.80;68.60;;;;;;5072814;28;19913;-65
2022/08/25 09:04:25;;;;;;;;;;;35.50;68.00;;;;;;5073347;28;19931;-65
2022/08/25 09:06:51;;;;;;;;;;;35.10;69.00;;;;;;5073017;28;19916;-64
2022/08/25 09:09:23;;;;;;;;;;;35.40;68.70;;;;;;5073125;28;19958;-64
2022/08/25 09:11:53;;;;;;;;;;;35.30;67.90;;;;;;5072870;28;20585;-65
2022/08/25 09:14:38;;;;;;;;;;;35.90;67.70;;;;;;5073193;28;20306;-66
2022/08/25 09:17:12;;;;;;;;;;;35.70;67.80;;;;;;5073340;28;20306;-66
2022/08/25 09:19:58;;;;;;;;;;;36.10;68.00;;;;;;5077138;28;19908;-64
2022/08/25 09:25:37;;;;;;;;;;;36.10;65.80;;;;;;5071141;28;19913;-66
2022/08/25 09:28:06;;;;;;;;;;;34.90;68.20;;;;;;5070435;28;20327;-66
2022/08/25 09:30:40;;;;;;;;;;;34.30;70.30;;;;;;5062310;28;19913;-66
2022/08/25 09:33:05;;;;;;;;;;;34.70;69.10;;;;;;5068678;28;19955;-65
2022/08/25 09:35:32;;;;;;;;;;;34.30;70.00;;;;;;5070925;28;19909;-62
2022/08/25 09:37:59;;;;;;;;;;;34.70;68.90;;;;;;5070127;28;20393;-63
2022/08/25 09:40:27;;;;;;;;;;;35.40;67.60;;;;;;5070445;28;19983;-62
2022/08/25 09:42:54;;;;;;;;;;;36.30;65.80;;;;;;5070289;28;19912;-64
2022/08/25 09:45:38;;;;;;;;;;;36.40;63.30;;;;;;5070605;28;19909;-64
2022/08/25 09:48:20;;;;;;;;;;;36.30;63.50;;;;;;5069747;28;19919;-66
2022/08/25 09:50:46;;;;;;;;;;;35.80;63.50;;;;;;5069089;28;20375;-64
2022/08/25 09:53:14;;;;;;;;;;;36.10;63.20;;;;;;5074927;28;19920;-65
2022/08/25 09:55:40;;;;;;;;;;;36.00;63.00;;;;;;5069020;28;20390;-65
2022/08/25 09:58:16;;;;;;;;;;;36.00;63.10;;;;;;5070365;28;20386;-66
2022/08/25 10:00:42;;;;;;;;;;;36.10;61.50;;;;;;5070154;28;20397;-68
2022/08/25 10:03:10;;;;;;;;;;;35.30;62.30;;;;;;5084019;28;19925;-68
2022/08/25 10:05:38;;;;;;;;;;;35.50;64.30;;;;;;5070119;28;19939;-68
2022/08/25 10:08:09;;;;;;;;;;;36.60;61.30;;;;;;5069943;28;19975;-68
2022/08/25 10:10:43;;;;;;;;;;;36.50;62.50;;;;;;5069913;28;20385;-68
2022/08/25 10:13:16;;;;;;;;;;;36.30;60.00;;;;;;5069447;28;20459;-67
2022/08/25 10:15:42;;;;;;;;;;;35.20;61.20;;;;;;5069681;28;19920;-68
2022/08/25 10:18:24;;;;;;;;;;;35.40;63.10;;;;;;5069591;28;19916;-68
2022/08/25 10:21:08;;;;;;;;;;;35.10;61.70;;;;;;5069357;28;19963;-68
2022/08/25 10:23:35;;;;;;;;;;;35.80;60.90;;;;;;5074402;28;19920;-68
2022/08/25 10:26:03;;;;;;;;;;;35.60;59.70;;;;;;5072043;28;19913;-67
2022/08/25 10:28:36;;;;;;;;;;;35.70;60.40;;;;;;5089782;28;19961;-67
2022/08/25 10:31:22;;;;;;;;;;;35.70;59.90;;;;;;5090035;28;19932;-68
2022/08/25 10:33:54;;;;;;;;;;;35.80;60.80;;;;;;5089275;28;20375;-68
2022/08/25 10:36:21;;;;;;;;;;;36.00;59.50;;;;;;5059754;28;20285;-67
2022/08/25 10:38:51;;;;;;;;;;;35.60;60.00;;;;;;5076080;28;20445;-67
2022/08/25 10:41:36;;;;;;;;;;;36.00;59.50;;;;;;5076048;28;19908;-69
2022/08/25 10:47:27;;;;;;;;;;;35.60;61.20;;;;;;5075704;28;19978;-68
2022/08/25 10:49:53;;;;;;;;;;;;;;;;;;5075612;28;19977;-69
2022/08/25 10:52:22;;;;;;;;;;;34.90;60.30;;;;;;5075810;28;19912;-68
2022/08/25 10:54:55;;;;;;;;;;;34.80;62.10;;;;;;5075530;28;19913;-69
2022/08/25 10:57:29;;;;;;;;;;;34.40;62.40;;;;;;5075938;28;19912;-68
2022/08/25 11:00:10;;;;;;;;;;;33.60;64.10;;;;;;5076044;28;20402;-69
2022/08/25 11:02:56;;;;;;;;;;;33.10;65.90;;;;;;5048275;28;19912;-69
2022/08/25 11:05:25;;;;;;;;;;;32.80;67.50;;;;;;5074778;28;20331;-69
2022/08/25 11:07:55;;;;;;;;;;;32.50;69.30;;;;;;5073589;28;19944;-69
2022/08/25 11:10:25;;;;;;;;;;;33.10;68.80;;;;;;5067390;28;19909;-69
2022/08/25 11:12:55;;;;;;;;;;;32.80;69.10;;;;;;5064404;28;20359;-68
2022/08/25 11:15:25;;;;;;;;;;;32.60;70.00;;;;;;5075173;28;19916;-68
2022/08/25 11:17:52;;;;;;;;;;;32.80;67.90;;;;;;5075598;28;19913;-68
2022/08/25 11:20:21;;;;;;;;;;;32.60;68.80;;;;;;5075257;28;20408;-68
2022/08/25 11:22:50;;;;;;;;;;;32.60;68.70;;;;;;5074874;28;19920;-68
2022/08/25 11:25:34;;;;;;;;;;;32.30;69.00;;;;;;5074797;28;20434;-67
2022/08/25 11:28:07;;;;;;;;;;;32.50;70.30;;;;;;5059546;28;19920;-68
2022/08/25 11:30:32;;;;;;;;;;;32.60;69.70;;;;;;5073936;28;20387;-68
2022/08/25 11:32:58;;;;;;;;;;;33.00;69.80;;;;;;5074934;28;19959;-68
2022/08/25 11:35:26;;;;;;;;;;;32.80;70.40;;;;;;5075004;28;19966;-68
2022/08/25 11:38:12;;;;;;;;;;;32.90;70.10;;;;;;5074380;28;19913;-69
2022/08/25 11:40:58;;;;;;;;;;;32.90;67.90;;;;;;5074876;28;20340;-68
2022/08/25 11:43:38;;;;;;;;;;;32.30;69.00;;;;;;5074382;28;20386;-68
2022/08/25 11:46:18;;;;;;;;;;;32.70;69.50;;;;;;5056483;28;19908;-68
2022/08/25 11:48:52;;;;;;;;;;;32.80;69.50;;;;;;5073906;28;19920;-69
2022/08/25 11:51:37;;;;;;;;;;;32.80;69.10;;;;;;5074515;28;19912;-68
2022/08/25 11:54:09;;;;;;;;;;;32.70;70.20;;;;;;5074415;28;19999;-68
2022/08/25 11:56:37;;;;;;;;;;;32.30;69.60;;;;;;5074308;28;19962;-68
2022/08/25 11:59:04;;;;;;;;;;;32.60;69.90;;;;;;5073768;28;20295;-68
2022/08/25 12:04:28;;;;;;;;;;;32.50;72.20;;;;;;5092140;27;19920;-69
2022/08/25 12:07:13;;;;;;;;;;;32.70;69.60;;;;;;5066617;28;19918;-64
2022/08/25 12:15:34;;;;;;;;;;;32.60;70.30;;;;;;5070298;28;19917;-65
2022/08/25 12:18:21;;;;;;;;;;;32.50;70.20;;;;;;5057186;28;19920;-64
2022/08/25 12:23:52;;;;;;;;;;;32.50;70.50;;;;;;5070535;28;19923;-64
2022/08/25 12:26:23;;;;;;;;;;;32.80;69.40;;;;;;5070627;28;19962;-64
2022/08/25 12:28:58;;;;;;;;;;;32.50;69.50;;;;;;5070308;28;19915;-64
2022/08/25 12:31:43;;;;;;;;;;;32.80;70.10;;;;;;5070842;28;19913;-64
2022/08/25 12:34:20;;;;;;;;;;;33.10;69.90;;;;;;5069905;28;19909;-63
2022/08/25 12:37:03;;;;;;;;;;;33.20;69.40;;;;;;5069867;28;19917;-64
2022/08/25 12:39:32;;;;;;;;;;;33.10;69.00;;;;;;5070520;28;19909;-64
2022/08/25 12:42:01;;;;;;;;;;;32.60;68.60;;;;;;5068659;28;20367;-65
2022/08/25 12:44:43;;;;;;;;;;;32.60;69.40;;;;;;5068828;28;19917;-64
2022/08/25 12:47:12;;;;;;;;;;;32.80;69.60;;;;;;5070368;28;20275;-64
2022/08/25 12:49:38;;;;;;;;;;;33.10;69.20;;;;;;5070015;28;19908;-64
2022/08/25 12:52:14;;;;;;;;;;;32.80;69.20;;;;;;5070570;28;20440;-64
2022/08/25 12:54:51;;;;;;;;;;;32.70;68.80;;;;;;5068144;28;20367;-64
2022/08/25 12:59:56;;;;;;;;;;;32.20;71.00;;;;;;5070683;28;19938;-63
2022/08/25 13:02:42;;;;;;;;;;;32.70;70.10;;;;;;5070290;28;19916;-63
2022/08/25 13:05:27;;;;;;;;;;;32.90;68.10;;;;;;5070236;28;20019;-63
2022/08/25 13:10:56;;;;;;;;;;;32.90;68.70;;;;;;5070832;28;19913;-64
2022/08/25 13:13:31;;;;;;;;;;;32.50;69.40;;;;;;5071047;28;20425;-64
2022/08/25 13:15:59;;;;;;;;;;;32.60;69.00;;;;;;5070861;28;19908;-64
2022/08/25 13:18:26;;;;;;;;;;;32.60;68.40;;;;;;5070167;28;20325;-64
2022/08/25 13:20:54;;;;;;;;;;;32.80;69.40;;;;;;5069900;28;19923;-64
2022/08/25 13:23:23;;;;;;;;;;;32.80;69.60;;;;;;5069560;28;19912;-64
2022/08/25 13:25:50;;;;;;;;;;;32.70;68.30;;;;;;5070271;28;20359;-64
2022/08/25 13:28:19;;;;;;;;;;;32.80;68.00;;;;;;5069618;28;19913;-65
2022/08/25 13:30:54;;;;;;;;;;;32.60;68.50;;;;;;5070102;28;20282;-65
2022/08/25 13:33:21;;;;;;;;;;;32.70;69.40;;;;;;5069199;28;19995;-64
2022/08/25 13:35:48;;;;;;;;;;;32.90;68.00;;;;;;5069212;28;19912;-64
2022/08/25 13:38:15;;;;;;;;;;;32.80;67.30;;;;;;5069783;28;20309;-64
2022/08/25 13:40:41;;;;;;;;;;;32.70;68.90;;;;;;5069971;28;19912;-64
2022/08/25 13:43:08;;;;;;;;;;;32.70;68.50;;;;;;5070199;28;19909;-64
2022/08/25 13:45:41;;;;;;;;;;;32.60;68.10;;;;;;5069545;28;19916;-64
2022/08/25 13:48:07;;;;;;;;;;;32.60;68.10;;;;;;5050039;28;19917;-64
2022/08/25 13:50:35;;;;;;;;;;;32.60;68.40;;;;;;5062562;28;19924;-64
2022/08/25 13:53:20;;;;;;;;;;;32.40;68.30;;;;;;5070102;28;19913;-64
2022/08/25 13:55:49;;;;;;;;;;;32.30;68.00;;;;;;5067662;28;19967;-64
2022/08/25 13:58:16;;;;;;;;;;;32.50;68.30;;;;;;5068264;28;20009;-65
2022/08/25 14:01:00;;;;;;;;;;;32.70;67.70;;;;;;5069538;28;19917;-65
2022/08/25 14:03:28;;;;;;;;;;;33.10;66.80;;;;;;5071731;28;19987;-64
2022/08/25 14:06:13;;;;;;;;;;;33.10;66.50;;;;;;5069167;28;20323;-65
2022/08/25 14:08:40;;;;;;;;;;;33.20;66.70;;;;;;5087548;28;19920;-64
2022/08/25 14:13:58;;;;;;;;;;;32.50;65.00;;;;;;5072212;28;19916;-63
2022/08/25 14:16:23;;;;;;;;;;;32.40;66.60;;;;;;5059984;28;19913;-64
2022/08/25 14:18:50;;;;;;;;;;;32.30;66.50;;;;;;5070816;28;20298;-63
2022/08/25 14:21:17;;;;;;;;;;;32.30;66.30;;;;;;5070940;28;19912;-63
2022/08/25 14:23:43;;;;;;;;;;;32.50;66.40;;;;;;5070728;28;19952;-63
2022/08/25 14:26:08;;;;;;;;;;;32.50;66.80;;;;;;5070531;28;20031;-63
2022/08/25 14:28:34;;;;;;;;;;;32.80;65.90;;;;;;5089096;28;19916;-65
2022/08/25 14:31:07;;;;;;;;;;;32.70;66.20;;;;;;5071774;28;19996;-64
2022/08/25 14:33:37;;;;;;;;;;;32.70;65.80;;;;;;5073732;28;19962;-64
2022/08/25 14:36:03;;;;;;;;;;;32.50;64.60;;;;;;5070715;28;19908;-64
2022/08/25 14:38:29;;;;;;;;;;;32.30;65.70;;;;;;5070542;28;19916;-64
2022/08/25 14:40:55;;;;;;;;;;;31.90;66.00;;;;;;5068919;28;19909;-64
2022/08/25 14:43:20;;;;;;;;;;;31.90;67.90;;;;;;5070203;28;19931;-64
2022/08/25 14:45:46;;;;;;;;;;;31.70;66.60;;;;;;5070362;28;19913;-64
2022/08/25 14:48:16;;;;;;;;;;;31.50;67.80;;;;;;5070063;28;19916;-64
2022/08/25 14:50:43;;;;;;;;;;;31.30;67.40;;;;;;5070463;28;19919;-64
2022/08/25 14:53:09;;;;;;;;;;;31.60;67.20;;;;;;5069985;28;19913;-64
2022/08/25 14:55:34;;;;;;;;;;;31.90;66.90;;;;;;5070105;28;19917;-64